createdAt,value
2023-08-07T00:00:15.184Z,62.00
2023-08-07T00:05:18.910Z,63.70
2023-08-07T00:10:22.171Z,63.70
2023-08-07T00:15:26.778Z,65.90
2023-08-07T00:20:30.023Z,64.00
2023-08-07T00:25:33.291Z,63.30
2023-08-07T00:30:37.873Z,62.40
2023-08-07T00:35:41.081Z,61.80
2023-08-07T00:40:44.266Z,62.30
2023-08-07T00:45:49.614Z,62.80
2023-08-07T00:50:53.554Z,63.60
2023-08-07T00:55:57.149Z,63.70
2023-08-07T01:01:01.793Z,64.40
2023-08-07T01:06:05.869Z,64.80
2023-08-07T01:11:19.042Z,62.40
2023-08-07T01:16:29.073Z,61.50
2023-08-07T01:21:34.646Z,61.10
2023-08-07T01:26:40.009Z,62.10
2023-08-07T01:31:44.460Z,64.20
2023-08-07T01:36:47.928Z,65.30
2023-08-07T01:41:52.935Z,65.90
2023-08-07T01:46:56.297Z,66.00
2023-08-07T01:51:59.664Z,69.00
2023-08-07T01:57:04.634Z,69.50
2023-08-07T02:02:07.983Z,70.70
2023-08-07T02:07:11.192Z,70.30
2023-08-07T02:12:15.775Z,68.80
2023-08-07T02:17:19.010Z,68.60
2023-08-07T02:22:22.190Z,68.60
2023-08-07T02:27:26.757Z,69.00
2023-08-07T02:32:29.997Z,69.50
2023-08-07T02:37:33.222Z,70.60
2023-08-07T02:42:37.819Z,71.70
2023-08-07T02:47:41.089Z,71.70
2023-08-07T02:52:46.051Z,69.70
2023-08-07T02:57:50.799Z,69.40
2023-08-07T03:02:54.069Z,71.60
2023-08-07T03:07:57.326Z,71.90
2023-08-07T03:13:02.280Z,72.40
2023-08-07T03:18:05.509Z,72.60
2023-08-07T03:23:08.794Z,73.40
2023-08-07T03:28:13.391Z,74.20
2023-08-07T03:33:16.585Z,74.00
2023-08-07T03:38:19.824Z,75.30
2023-08-07T03:43:24.407Z,77.50
2023-08-07T03:48:27.707Z,76.90
2023-08-07T03:53:30.929Z,77.20
2023-08-07T03:58:35.525Z,77.10
2023-08-07T04:03:39.823Z,77.50
2023-08-07T04:08:43.120Z,78.30
2023-08-07T04:13:47.808Z,78.00
2023-08-07T04:18:51.007Z,77.80
2023-08-07T04:23:54.238Z,77.70
2023-08-07T04:28:59.378Z,79.10
2023-08-07T04:34:02.591Z,78.50
2023-08-07T04:39:05.954Z,77.20
2023-08-07T04:44:10.565Z,77.40
2023-08-07T04:49:13.770Z,76.90
2023-08-07T04:54:16.963Z,76.40
2023-08-07T04:59:21.577Z,74.20
2023-08-07T05:04:24.774Z,71.00
2023-08-07T05:09:28.006Z,70.30
2023-08-07T05:14:32.891Z,69.20
2023-08-07T05:19:36.090Z,66.80
2023-08-07T05:24:40.764Z,67.70
2023-08-07T05:29:45.636Z,66.00
2023-08-07T05:34:48.864Z,63.20
2023-08-07T05:39:52.180Z,61.60
2023-08-07T05:44:56.766Z,60.40
2023-08-07T05:49:59.934Z,59.40
2023-08-07T05:55:04.937Z,56.90
2023-08-07T06:00:15.258Z,54.80
2023-08-07T06:05:18.805Z,47.70
2023-08-07T06:10:22.060Z,46.20
2023-08-07T06:15:26.666Z,40.30
2023-08-07T06:20:29.917Z,39.60
2023-08-07T06:25:33.145Z,47.20
2023-08-07T06:30:40.773Z,49.10
2023-08-07T06:35:44.810Z,50.80
2023-08-07T06:40:48.517Z,51.20
2023-08-07T06:45:53.548Z,51.40
2023-08-07T06:50:56.809Z,52.90
2023-08-07T06:56:00.112Z,51.30
2023-08-07T07:01:04.813Z,48.60
2023-08-07T07:06:08.016Z,49.00
2023-08-07T07:11:11.857Z,48.10
2023-08-07T07:16:16.509Z,47.40
2023-08-07T07:21:19.818Z,48.70
2023-08-07T07:26:23.024Z,48.80
2023-08-07T07:31:27.782Z,48.10
2023-08-07T07:36:31.285Z,45.10
2023-08-07T07:41:34.698Z,44.40
2023-08-07T07:46:40.628Z,42.50
2023-08-07T07:51:45.813Z,42.40
2023-08-07T07:56:49.044Z,40.90
2023-08-07T08:01:53.670Z,37.40
2023-08-07T08:06:57.357Z,33.60
2023-08-07T08:12:00.773Z,34.00
2023-08-07T08:17:05.904Z,34.80
2023-08-07T08:22:10.300Z,34.90
2023-08-07T08:27:13.444Z,35.10
2023-08-07T08:32:18.074Z,32.40
2023-08-07T08:37:21.413Z,36.00
2023-08-07T08:42:25.046Z,36.90
2023-08-07T08:47:29.747Z,37.80
2023-08-07T08:52:33.620Z,37.10
2023-08-07T08:57:37.441Z,36.40
2023-08-07T09:02:42.290Z,35.60
2023-08-07T09:07:47.796Z,35.40
2023-08-07T09:12:55.810Z,34.90
2023-08-07T09:18:00.751Z,34.20
2023-08-07T09:23:04.023Z,30.80
2023-08-07T09:28:07.944Z,29.10
2023-08-07T09:33:12.573Z,28.70
2023-08-07T09:38:16.374Z,31.10
2023-08-07T09:43:23.496Z,30.70
2023-08-07T09:48:28.991Z,31.40
2023-08-07T09:53:32.788Z,32.10
2023-08-07T09:58:36.000Z,33.10
2023-08-07T10:03:41.473Z,30.10
2023-08-07T10:08:45.975Z,28.70
2023-08-07T10:13:49.950Z,27.50
2023-08-07T10:18:54.534Z,27.90
2023-08-07T10:23:58.209Z,27.60
2023-08-07T10:29:03.213Z,29.50
2023-08-07T10:34:07.872Z,28.90
2023-08-07T10:39:12.563Z,28.20
2023-08-07T10:44:22.455Z,28.30
2023-08-07T10:49:35.355Z,27.80
2023-08-07T10:54:44.905Z,28.30
2023-08-07T10:59:52.245Z,28.80
2023-08-07T11:04:57.885Z,28.40
2023-08-07T11:10:01.478Z,28.00
2023-08-07T11:15:05.133Z,28.10
2023-08-07T11:20:12.064Z,26.20
2023-08-07T11:25:16.764Z,26.00
2023-08-07T11:30:20.038Z,26.10
2023-08-07T11:35:24.932Z,26.50
2023-08-07T11:40:28.161Z,26.00
2023-08-07T11:45:31.700Z,26.40
2023-08-07T11:50:36.686Z,26.40
2023-08-07T11:55:48.958Z,27.50
2023-08-07T12:00:52.512Z,28.40
2023-08-07T12:05:58.323Z,27.40
2023-08-07T12:11:03.525Z,28.40
2023-08-07T12:16:07.193Z,29.10
2023-08-07T12:21:12.217Z,29.50
2023-08-07T12:26:15.419Z,28.80
2023-08-07T12:31:19.952Z,26.60
2023-08-07T12:36:24.572Z,26.30
2023-08-07T12:46:36.133Z,25.10
2023-08-07T12:51:42.041Z,26.00
2023-08-07T12:56:45.317Z,26.90
2023-08-07T13:01:48.564Z,27.20
2023-08-07T13:06:53.235Z,27.70
2023-08-07T13:11:56.778Z,28.20
2023-08-07T13:17:00.342Z,27.30
2023-08-07T13:22:05.542Z,26.80
2023-08-07T13:27:08.858Z,26.00
2023-08-07T13:32:12.196Z,26.50
2023-08-07T13:37:17.198Z,26.30
2023-08-07T13:42:20.404Z,26.20
2023-08-07T13:47:25.531Z,27.70
2023-08-07T13:52:31.745Z,27.60
2023-08-07T13:57:35.544Z,27.30
2023-08-07T14:02:38.782Z,28.40
2023-08-07T14:07:43.435Z,28.40
2023-08-07T14:12:47.993Z,26.30
2023-08-07T14:17:52.202Z,26.80
2023-08-07T14:23:05.647Z,25.00
2023-08-07T14:28:15.750Z,22.20
2023-08-07T14:33:19.353Z,22.10
2023-08-07T14:38:24.011Z,23.10
2023-08-07T14:43:27.492Z,23.70
2023-08-07T14:48:30.822Z,24.70
2023-08-07T14:53:36.695Z,24.30
2023-08-07T14:58:39.952Z,25.40
2023-08-07T15:03:43.230Z,25.00
2023-08-07T15:08:47.858Z,24.60
2023-08-07T15:13:51.109Z,22.60
2023-08-07T15:18:54.310Z,23.70
2023-08-07T15:23:58.910Z,24.40
2023-08-07T15:29:02.182Z,23.70
2023-08-07T15:34:05.506Z,24.10
2023-08-07T15:39:10.175Z,23.60
2023-08-07T15:44:13.361Z,23.60
2023-08-07T15:49:16.616Z,24.40
2023-08-07T15:54:21.618Z,24.70
2023-08-07T15:59:27.999Z,24.70
2023-08-07T16:04:31.287Z,25.70
2023-08-07T16:09:35.920Z,26.50
2023-08-07T16:14:39.652Z,26.90
2023-08-07T16:19:43.087Z,27.00
2023-08-07T16:24:48.749Z,26.80
2023-08-07T16:29:52.001Z,27.30
2023-08-07T16:34:55.245Z,26.30
2023-08-07T16:40:00.289Z,27.60
2023-08-07T16:45:04.956Z,26.10
2023-08-07T16:50:09.357Z,27.50
2023-08-07T16:55:14.970Z,29.00
2023-08-07T17:00:18.876Z,30.00
2023-08-07T17:05:24.183Z,30.00
2023-08-07T17:10:28.837Z,30.60
2023-08-07T17:15:35.066Z,30.00
2023-08-07T17:20:38.291Z,29.60
2023-08-07T17:25:43.093Z,28.20
2023-08-07T17:30:46.364Z,29.70
2023-08-07T17:35:49.586Z,30.40
2023-08-07T17:40:55.316Z,30.70
2023-08-07T17:45:59.545Z,31.30
2023-08-07T17:51:02.856Z,32.00
2023-08-07T17:56:07.626Z,31.80
2023-08-07T18:01:11.005Z,32.20
2023-08-07T18:06:15.359Z,32.90
2023-08-07T18:11:20.048Z,33.70
2023-08-07T18:16:24.282Z,34.10
2023-08-07T18:21:27.611Z,35.10
2023-08-07T18:26:32.510Z,36.10
2023-08-07T18:31:35.892Z,36.90
2023-08-07T18:36:40.723Z,37.70
2023-08-07T18:41:45.355Z,38.70
2023-08-07T18:46:48.608Z,39.70
2023-08-07T18:51:51.794Z,40.90
2023-08-07T18:56:56.697Z,42.60
2023-08-07T19:02:00.525Z,43.20
2023-08-07T19:07:03.902Z,44.60
2023-08-07T19:12:09.776Z,46.90
2023-08-07T19:17:13.068Z,45.70
2023-08-07T19:22:16.540Z,46.20
2023-08-07T19:27:21.247Z,47.50
2023-08-07T19:32:24.505Z,48.60
2023-08-07T19:37:27.742Z,47.90
2023-08-07T19:42:32.662Z,48.10
2023-08-07T19:47:37.365Z,48.10
2023-08-07T19:52:40.702Z,49.20
2023-08-07T19:57:45.468Z,49.70
2023-08-07T20:02:48.746Z,52.40
2023-08-07T20:07:51.963Z,51.70
2023-08-07T20:12:56.598Z,50.70
2023-08-07T20:17:59.883Z,51.20
2023-08-07T20:23:03.887Z,51.70
2023-08-07T20:28:08.857Z,52.30
2023-08-07T20:33:12.525Z,53.30
2023-08-07T20:38:15.725Z,53.50
2023-08-07T20:43:20.624Z,53.80
2023-08-07T20:48:23.914Z,53.70
2023-08-07T20:53:27.188Z,54.90
2023-08-07T20:58:34.136Z,56.00
2023-08-07T21:03:37.438Z,55.10
2023-08-07T21:08:40.739Z,56.00
2023-08-07T21:13:45.426Z,57.20
2023-08-07T21:18:48.712Z,58.40
2023-08-07T21:23:51.901Z,58.50
2023-08-07T21:28:56.552Z,59.80
2023-08-07T21:34:00.214Z,59.60
2023-08-07T21:39:03.442Z,60.20
2023-08-07T21:44:08.641Z,61.10
2023-08-07T21:49:11.905Z,61.50
2023-08-07T21:54:15.089Z,61.60
2023-08-07T21:59:19.673Z,63.60
2023-08-07T22:04:22.925Z,63.80
2023-08-07T22:09:26.424Z,64.70
2023-08-07T22:14:30.961Z,65.10
2023-08-07T22:19:34.178Z,64.50
2023-08-07T22:24:37.425Z,64.00
2023-08-07T22:29:42.043Z,64.90
2023-08-07T22:34:45.272Z,64.80
2023-08-07T22:39:48.765Z,65.10
2023-08-07T22:44:53.345Z,65.70
2023-08-07T22:49:56.540Z,67.90
2023-08-07T22:54:59.732Z,69.50
2023-08-07T23:00:05.770Z,69.60
2023-08-07T23:05:10.313Z,69.30
2023-08-07T23:10:14.192Z,67.80
2023-08-07T23:15:18.961Z,67.10
2023-08-07T23:20:22.402Z,68.30
2023-08-07T23:25:25.627Z,67.90
2023-08-07T23:30:30.831Z,69.40
2023-08-07T23:35:34.082Z,70.90
2023-08-07T23:40:39.163Z,69.90
2023-08-07T23:45:43.802Z,70.00
2023-08-07T23:50:47.258Z,70.70
2023-08-07T23:55:50.536Z,70.00
